sensor_id;sensor_type;location;lat;lon;timestamp;P1;durP1;ratioP1;P2;durP2;ratioP2
54125;SDS011;40360;52.992;6.796;2022-12-08T00:01:38;6.65;;;1.10;;
54125;SDS011;40360;52.992;6.796;2022-12-08T00:04:04;6.45;;;1.05;;
54125;SDS011;40360;52.992;6.796;2022-12-08T00:06:34;4.55;;;1.17;;
54125;SDS011;40360;52.992;6.796;2022-12-08T00:12:03;4.63;;;1.55;;
54125;SDS011;40360;52.992;6.796;2022-12-08T00:14:30;4.30;;;1.33;;
54125;SDS011;40360;52.992;6.796;2022-12-08T00:16:57;6.65;;;2.38;;
54125;SDS011;40360;52.992;6.796;2022-12-08T00:19:24;2.40;;;0.88;;
54125;SDS011;40360;52.992;6.796;2022-12-08T00:21:51;5.43;;;1.50;;
54125;SDS011;40360;52.992;6.796;2022-12-08T00:24:17;6.15;;;1.23;;
54125;SDS011;40360;52.992;6.796;2022-12-08T00:26:43;6.22;;;1.35;;
54125;SDS011;40360;52.992;6.796;2022-12-08T00:29:08;3.75;;;0.88;;
54125;SDS011;40360;52.992;6.796;2022-12-08T00:31:34;5.35;;;2.35;;
54125;SDS011;40360;52.992;6.796;2022-12-08T00:34:00;7.95;;;1.10;;
54125;SDS011;40360;52.992;6.796;2022-12-08T00:36:26;3.65;;;1.10;;
54125;SDS011;40360;52.992;6.796;2022-12-08T00:38:52;6.72;;;1.50;;
54125;SDS011;40360;52.992;6.796;2022-12-08T00:41:19;6.30;;;1.60;;
54125;SDS011;40360;52.992;6.796;2022-12-08T00:44:12;5.50;;;1.30;;
54125;SDS011;40360;52.992;6.796;2022-12-08T00:46:40;6.18;;;1.23;;
54125;SDS011;40360;52.992;6.796;2022-12-08T00:49:05;10.27;;;1.50;;
54125;SDS011;40360;52.992;6.796;2022-12-08T00:51:31;6.10;;;2.28;;
54125;SDS011;40360;52.992;6.796;2022-12-08T00:54:01;7.13;;;1.60;;
54125;SDS011;40360;52.992;6.796;2022-12-08T00:56:26;4.90;;;1.40;;
54125;SDS011;40360;52.992;6.796;2022-12-08T00:58:52;2.85;;;1.13;;
54125;SDS011;40360;52.992;6.796;2022-12-08T01:01:18;5.43;;;1.33;;
54125;SDS011;40360;52.992;6.796;2022-12-08T01:03:43;3.30;;;1.30;;
54125;SDS011;40360;52.992;6.796;2022-12-08T01:06:09;6.40;;;1.40;;
54125;SDS011;40360;52.992;6.796;2022-12-08T01:08:36;6.25;;;2.13;;
54125;SDS011;40360;52.992;6.796;2022-12-08T01:11:02;5.63;;;1.75;;
54125;SDS011;40360;52.992;6.796;2022-12-08T01:13:33;7.57;;;2.00;;
54125;SDS011;40360;52.992;6.796;2022-12-08T01:15:59;5.30;;;1.90;;
54125;SDS011;40360;52.992;6.796;2022-12-08T01:18:28;6.15;;;1.88;;
54125;SDS011;40360;52.992;6.796;2022-12-08T01:20:54;9.55;;;2.30;;
54125;SDS011;40360;52.992;6.796;2022-12-08T01:23:20;11.15;;;3.08;;
54125;SDS011;40360;52.992;6.796;2022-12-08T01:25:45;5.60;;;1.83;;
54125;SDS011;40360;52.992;6.796;2022-12-08T01:28:11;4.75;;;1.70;;
54125;SDS011;40360;52.992;6.796;2022-12-08T01:30:37;2.33;;;1.15;;
54125;SDS011;40360;52.992;6.796;2022-12-08T01:33:03;4.35;;;1.20;;
54125;SDS011;40360;52.992;6.796;2022-12-08T01:35:32;5.03;;;1.40;;
54125;SDS011;40360;52.992;6.796;2022-12-08T01:37:58;6.15;;;1.80;;
54125;SDS011;40360;52.992;6.796;2022-12-08T01:40:24;6.53;;;1.60;;
54125;SDS011;40360;52.992;6.796;2022-12-08T01:42:49;2.88;;;1.30;;
54125;SDS011;40360;52.992;6.796;2022-12-08T01:45:26;4.03;;;1.60;;
54125;SDS011;40360;52.992;6.796;2022-12-08T01:47:57;6.00;;;1.88;;
54125;SDS011;40360;52.992;6.796;2022-12-08T01:50:27;5.47;;;1.73;;
54125;SDS011;40360;52.992;6.796;2022-12-08T01:52:56;5.20;;;1.38;;
54125;SDS011;40360;52.992;6.796;2022-12-08T01:55:29;6.13;;;1.23;;
54125;SDS011;40360;52.992;6.796;2022-12-08T01:58:02;3.80;;;1.45;;
54125;SDS011;40360;52.992;6.796;2022-12-08T02:00:35;4.80;;;1.60;;
54125;SDS011;40360;52.992;6.796;2022-12-08T02:03:01;3.80;;;1.55;;
54125;SDS011;40360;52.992;6.796;2022-12-08T02:05:35;3.42;;;1.58;;
54125;SDS011;40360;52.992;6.796;2022-12-08T02:08:03;2.20;;;1.30;;
54125;SDS011;40360;52.992;6.796;2022-12-08T02:10:33;2.25;;;1.27;;
54125;SDS011;40360;52.992;6.796;2022-12-08T02:13:02;4.38;;;1.95;;
54125;SDS011;40360;52.992;6.796;2022-12-08T02:15:32;4.22;;;1.58;;
54125;SDS011;40360;52.992;6.796;2022-12-08T02:29:45;3.03;;;1.50;;
54125;SDS011;40360;52.992;6.796;2022-12-08T02:37:56;6.60;;;1.75;;
54125;SDS011;40360;52.992;6.796;2022-12-08T02:40:56;8.35;;;1.60;;
54125;SDS011;40360;52.992;6.796;2022-12-08T02:46:12;5.90;;;1.65;;
54125;SDS011;40360;52.992;6.796;2022-12-08T02:48:51;6.03;;;1.60;;
54125;SDS011;40360;52.992;6.796;2022-12-08T02:51:17;4.78;;;1.65;;
54125;SDS011;40360;52.992;6.796;2022-12-08T02:53:43;4.82;;;1.40;;
54125;SDS011;40360;52.992;6.796;2022-12-08T02:56:32;5.78;;;0.73;;
54125;SDS011;40360;52.992;6.796;2022-12-08T02:59:15;6.05;;;1.30;;
54125;SDS011;40360;52.992;6.796;2022-12-08T03:05:21;1.95;;;0.90;;
54125;SDS011;40360;52.992;6.796;2022-12-08T03:08:06;3.72;;;0.80;;
54125;SDS011;40360;52.992;6.796;2022-12-08T03:13:13;1.42;;;0.88;;
54125;SDS011;40360;52.992;6.796;2022-12-08T03:15:45;2.92;;;0.98;;
54125;SDS011;40360;52.992;6.796;2022-12-08T03:18:14;1.70;;;1.00;;
54125;SDS011;40360;52.992;6.796;2022-12-08T03:20:42;2.30;;;0.88;;
54125;SDS011;40360;52.992;6.796;2022-12-08T03:23:10;4.28;;;1.20;;
54125;SDS011;40360;52.992;6.796;2022-12-08T03:25:40;3.58;;;1.27;;
54125;SDS011;40360;52.992;6.796;2022-12-08T03:28:12;5.90;;;1.42;;
54125;SDS011;40360;52.992;6.796;2022-12-08T03:30:38;4.18;;;1.20;;
54125;SDS011;40360;52.992;6.796;2022-12-08T03:33:17;7.53;;;1.50;;
54125;SDS011;40360;52.992;6.796;2022-12-08T03:35:48;2.97;;;0.95;;
54125;SDS011;40360;52.992;6.796;2022-12-08T03:38:16;3.20;;;0.93;;
54125;SDS011;40360;52.992;6.796;2022-12-08T03:40:42;4.50;;;1.08;;
54125;SDS011;40360;52.992;6.796;2022-12-08T03:43:28;2.45;;;1.00;;
54125;SDS011;40360;52.992;6.796;2022-12-08T03:45:54;1.85;;;1.20;;
54125;SDS011;40360;52.992;6.796;2022-12-08T03:48:20;2.78;;;0.90;;
54125;SDS011;40360;52.992;6.796;2022-12-08T03:50:45;0.98;;;0.90;;
54125;SDS011;40360;52.992;6.796;2022-12-08T03:53:11;1.45;;;0.80;;
54125;SDS011;40360;52.992;6.796;2022-12-08T03:55:37;1.55;;;0.90;;
54125;SDS011;40360;52.992;6.796;2022-12-08T03:58:03;3.17;;;2.03;;
54125;SDS011;40360;52.992;6.796;2022-12-08T04:00:29;4.93;;;1.50;;
54125;SDS011;40360;52.992;6.796;2022-12-08T04:02:54;3.58;;;1.30;;
54125;SDS011;40360;52.992;6.796;2022-12-08T04:05:20;2.50;;;1.20;;
54125;SDS011;40360;52.992;6.796;2022-12-08T04:07:45;3.55;;;1.85;;
54125;SDS011;40360;52.992;6.796;2022-12-08T04:10:11;4.15;;;1.30;;
54125;SDS011;40360;52.992;6.796;2022-12-08T04:12:37;3.38;;;1.08;;
54125;SDS011;40360;52.992;6.796;2022-12-08T04:15:02;4.70;;;1.00;;
54125;SDS011;40360;52.992;6.796;2022-12-08T04:17:28;7.18;;;1.17;;
54125;SDS011;40360;52.992;6.796;2022-12-08T04:19:54;6.97;;;0.95;;
54125;SDS011;40360;52.992;6.796;2022-12-08T04:22:19;1.80;;;0.63;;
54125;SDS011;40360;52.992;6.796;2022-12-08T04:24:45;2.03;;;0.90;;
54125;SDS011;40360;52.992;6.796;2022-12-08T04:27:11;4.05;;;0.75;;
54125;SDS011;40360;52.992;6.796;2022-12-08T04:29:36;3.75;;;0.80;;
54125;SDS011;40360;52.992;6.796;2022-12-08T04:32:02;2.45;;;0.60;;
54125;SDS011;40360;52.992;6.796;2022-12-08T04:34:28;1.25;;;0.60;;
54125;SDS011;40360;52.992;6.796;2022-12-08T04:36:54;1.90;;;0.80;;
54125;SDS011;40360;52.992;6.796;2022-12-08T04:39:19;3.22;;;0.73;;
54125;SDS011;40360;52.992;6.796;2022-12-08T04:41:45;5.72;;;0.90;;
54125;SDS011;40360;52.992;6.796;2022-12-08T04:44:10;3.28;;;1.10;;
54125;SDS011;40360;52.992;6.796;2022-12-08T04:46:36;1.23;;;0.93;;
54125;SDS011;40360;52.992;6.796;2022-12-08T04:49:02;1.85;;;1.05;;
54125;SDS011;40360;52.992;6.796;2022-12-08T04:51:27;1.83;;;0.70;;
54125;SDS011;40360;52.992;6.796;2022-12-08T04:53:53;2.35;;;0.80;;
54125;SDS011;40360;52.992;6.796;2022-12-08T04:56:19;1.55;;;0.75;;
54125;SDS011;40360;52.992;6.796;2022-12-08T04:58:44;1.70;;;0.68;;
54125;SDS011;40360;52.992;6.796;2022-12-08T05:01:11;2.63;;;1.15;;
54125;SDS011;40360;52.992;6.796;2022-12-08T05:21:22;1.50;;;0.60;;
54125;SDS011;40360;52.992;6.796;2022-12-08T05:23:48;2.35;;;0.80;;
54125;SDS011;40360;52.992;6.796;2022-12-08T05:26:17;2.58;;;1.23;;
54125;SDS011;40360;52.992;6.796;2022-12-08T05:28:42;2.10;;;0.70;;
54125;SDS011;40360;52.992;6.796;2022-12-08T05:31:08;2.30;;;0.45;;
54125;SDS011;40360;52.992;6.796;2022-12-08T05:33:37;2.25;;;0.50;;
54125;SDS011;40360;52.992;6.796;2022-12-08T05:36:03;0.98;;;0.40;;
54125;SDS011;40360;52.992;6.796;2022-12-08T05:38:29;3.08;;;0.55;;
54125;SDS011;40360;52.992;6.796;2022-12-08T05:40:55;1.25;;;0.82;;
54125;SDS011;40360;52.992;6.796;2022-12-08T05:43:20;0.57;;;0.40;;
54125;SDS011;40360;52.992;6.796;2022-12-08T05:45:46;3.28;;;0.40;;
54125;SDS011;40360;52.992;6.796;2022-12-08T05:48:12;1.48;;;0.52;;
54125;SDS011;40360;52.992;6.796;2022-12-08T05:50:38;2.60;;;0.45;;
54125;SDS011;40360;52.992;6.796;2022-12-08T05:53:03;0.93;;;0.30;;
54125;SDS011;40360;52.992;6.796;2022-12-08T05:55:29;2.28;;;0.50;;
54125;SDS011;40360;52.992;6.796;2022-12-08T05:57:55;1.60;;;0.50;;
54125;SDS011;40360;52.992;6.796;2022-12-08T06:00:21;1.08;;;0.40;;
54125;SDS011;40360;52.992;6.796;2022-12-08T06:02:46;0.43;;;0.43;;
54125;SDS011;40360;52.992;6.796;2022-12-08T06:05:12;1.38;;;0.35;;
54125;SDS011;40360;52.992;6.796;2022-12-08T06:07:38;1.17;;;0.30;;
54125;SDS011;40360;52.992;6.796;2022-12-08T06:10:03;1.58;;;0.60;;
54125;SDS011;40360;52.992;6.796;2022-12-08T06:12:30;0.38;;;0.30;;
54125;SDS011;40360;52.992;6.796;2022-12-08T06:14:56;1.70;;;0.30;;
54125;SDS011;40360;52.992;6.796;2022-12-08T06:17:21;1.17;;;0.50;;
54125;SDS011;40360;52.992;6.796;2022-12-08T06:19:47;1.52;;;0.45;;
54125;SDS011;40360;52.992;6.796;2022-12-08T06:22:12;2.50;;;0.30;;
54125;SDS011;40360;52.992;6.796;2022-12-08T06:24:38;1.85;;;0.30;;
54125;SDS011;40360;52.992;6.796;2022-12-08T06:27:04;2.28;;;0.57;;
54125;SDS011;40360;52.992;6.796;2022-12-08T06:29:29;2.55;;;0.50;;
54125;SDS011;40360;52.992;6.796;2022-12-08T06:31:55;0.98;;;0.38;;
54125;SDS011;40360;52.992;6.796;2022-12-08T06:34:21;0.90;;;0.38;;
54125;SDS011;40360;52.992;6.796;2022-12-08T06:36:46;1.90;;;0.52;;
54125;SDS011;40360;52.992;6.796;2022-12-08T06:39:12;3.22;;;0.45;;
54125;SDS011;40360;52.992;6.796;2022-12-08T06:41:37;0.40;;;0.28;;
54125;SDS011;40360;52.992;6.796;2022-12-08T06:44:23;2.22;;;0.40;;
54125;SDS011;40360;52.992;6.796;2022-12-08T06:46:48;1.70;;;0.40;;
54125;SDS011;40360;52.992;6.796;2022-12-08T06:49:14;1.63;;;0.57;;
54125;SDS011;40360;52.992;6.796;2022-12-08T06:51:40;2.53;;;0.32;;
54125;SDS011;40360;52.992;6.796;2022-12-08T06:54:05;1.20;;;0.30;;
54125;SDS011;40360;52.992;6.796;2022-12-08T06:56:31;0.77;;;0.38;;
54125;SDS011;40360;52.992;6.796;2022-12-08T06:58:59;1.45;;;0.60;;
54125;SDS011;40360;52.992;6.796;2022-12-08T07:01:25;2.08;;;0.50;;
54125;SDS011;40360;52.992;6.796;2022-12-08T07:03:51;1.15;;;0.30;;
54125;SDS011;40360;52.992;6.796;2022-12-08T07:06:22;1.58;;;0.60;;
54125;SDS011;40360;52.992;6.796;2022-12-08T07:08:48;4.68;;;0.98;;
54125;SDS011;40360;52.992;6.796;2022-12-08T07:11:14;3.08;;;0.85;;
54125;SDS011;40360;52.992;6.796;2022-12-08T07:13:40;3.05;;;1.00;;
54125;SDS011;40360;52.992;6.796;2022-12-08T07:16:09;1.70;;;1.15;;
54125;SDS011;40360;52.992;6.796;2022-12-08T07:18:36;1.73;;;1.20;;
54125;SDS011;40360;52.992;6.796;2022-12-08T07:21:06;3.75;;;1.10;;
54125;SDS011;40360;52.992;6.796;2022-12-08T07:23:33;2.28;;;1.45;;
54125;SDS011;40360;52.992;6.796;2022-12-08T07:26:03;2.60;;;1.20;;
54125;SDS011;40360;52.992;6.796;2022-12-08T07:28:30;3.40;;;1.58;;
54125;SDS011;40360;52.992;6.796;2022-12-08T07:36:54;3.28;;;1.70;;
54125;SDS011;40360;52.992;6.796;2022-12-08T07:42:31;5.78;;;1.90;;
54125;SDS011;40360;52.992;6.796;2022-12-08T07:44:57;3.33;;;1.92;;
54125;SDS011;40360;52.992;6.796;2022-12-08T07:47:31;6.47;;;2.38;;
54125;SDS011;40360;52.992;6.796;2022-12-08T07:49:58;6.68;;;2.90;;
54125;SDS011;40360;52.992;6.796;2022-12-08T07:52:29;5.72;;;2.85;;
54125;SDS011;40360;52.992;6.796;2022-12-08T07:54:55;4.28;;;2.85;;
54125;SDS011;40360;52.992;6.796;2022-12-08T07:57:24;5.63;;;2.75;;
54125;SDS011;40360;52.992;6.796;2022-12-08T07:59:56;11.05;;;3.30;;
54125;SDS011;40360;52.992;6.796;2022-12-08T08:02:25;4.95;;;2.78;;
54125;SDS011;40360;52.992;6.796;2022-12-08T08:05:11;4.35;;;2.80;;
54125;SDS011;40360;52.992;6.796;2022-12-08T08:07:38;7.25;;;2.97;;
54125;SDS011;40360;52.992;6.796;2022-12-08T08:10:09;4.75;;;2.60;;
54125;SDS011;40360;52.992;6.796;2022-12-08T08:12:38;5.95;;;2.20;;
54125;SDS011;40360;52.992;6.796;2022-12-08T08:15:05;7.55;;;2.28;;
54125;SDS011;40360;52.992;6.796;2022-12-08T08:17:47;4.55;;;2.28;;
54125;SDS011;40360;52.992;6.796;2022-12-08T08:20:16;7.25;;;2.58;;
54125;SDS011;40360;52.992;6.796;2022-12-08T08:22:44;4.72;;;2.80;;
54125;SDS011;40360;52.992;6.796;2022-12-08T08:25:14;9.65;;;3.38;;
54125;SDS011;40360;52.992;6.796;2022-12-08T08:27:40;5.10;;;3.08;;
54125;SDS011;40360;52.992;6.796;2022-12-08T08:30:07;5.40;;;2.50;;
54125;SDS011;40360;52.992;6.796;2022-12-08T08:32:38;4.60;;;3.00;;
54125;SDS011;40360;52.992;6.796;2022-12-08T08:35:04;5.38;;;2.60;;
54125;SDS011;40360;52.992;6.796;2022-12-08T08:37:31;5.65;;;2.83;;
54125;SDS011;40360;52.992;6.796;2022-12-08T08:39:57;6.20;;;2.75;;
54125;SDS011;40360;52.992;6.796;2022-12-08T08:42:28;4.55;;;2.75;;
54125;SDS011;40360;52.992;6.796;2022-12-08T08:44:54;6.75;;;2.50;;
54125;SDS011;40360;52.992;6.796;2022-12-08T08:47:20;6.75;;;2.72;;
54125;SDS011;40360;52.992;6.796;2022-12-08T08:49:49;4.88;;;2.78;;
54125;SDS011;40360;52.992;6.796;2022-12-08T08:52:21;5.03;;;2.55;;
54125;SDS011;40360;52.992;6.796;2022-12-08T08:54:46;5.55;;;2.90;;
54125;SDS011;40360;52.992;6.796;2022-12-08T08:57:12;5.35;;;2.50;;
54125;SDS011;40360;52.992;6.796;2022-12-08T08:59:38;6.63;;;2.60;;
54125;SDS011;40360;52.992;6.796;2022-12-08T09:02:08;3.47;;;2.10;;
54125;SDS011;40360;52.992;6.796;2022-12-08T09:04:49;5.05;;;2.25;;
54125;SDS011;40360;52.992;6.796;2022-12-08T09:07:15;4.50;;;2.30;;
54125;SDS011;40360;52.992;6.796;2022-12-08T09:09:43;4.45;;;2.60;;
54125;SDS011;40360;52.992;6.796;2022-12-08T09:12:09;3.85;;;2.53;;
54125;SDS011;40360;52.992;6.796;2022-12-08T09:14:36;6.78;;;3.22;;
54125;SDS011;40360;52.992;6.796;2022-12-08T09:17:01;6.47;;;2.72;;
54125;SDS011;40360;52.992;6.796;2022-12-08T09:19:27;7.45;;;3.15;;
54125;SDS011;40360;52.992;6.796;2022-12-08T09:21:53;4.07;;;2.63;;
54125;SDS011;40360;52.992;6.796;2022-12-08T09:24:20;9.93;;;3.17;;
54125;SDS011;40360;52.992;6.796;2022-12-08T09:26:48;4.85;;;2.55;;
54125;SDS011;40360;52.992;6.796;2022-12-08T09:29:18;8.25;;;2.72;;
54125;SDS011;40360;52.992;6.796;2022-12-08T09:31:43;7.20;;;2.70;;
54125;SDS011;40360;52.992;6.796;2022-12-08T09:34:10;4.90;;;2.90;;
54125;SDS011;40360;52.992;6.796;2022-12-08T09:36:37;5.30;;;2.53;;
54125;SDS011;40360;52.992;6.796;2022-12-08T09:39:06;6.10;;;2.50;;
54125;SDS011;40360;52.992;6.796;2022-12-08T09:41:33;4.80;;;2.58;;
54125;SDS011;40360;52.992;6.796;2022-12-08T09:47:28;5.75;;;3.15;;
54125;SDS011;40360;52.992;6.796;2022-12-08T09:52:58;5.03;;;2.88;;
54125;SDS011;40360;52.992;6.796;2022-12-08T09:55:58;6.63;;;2.75;;
54125;SDS011;40360;52.992;6.796;2022-12-08T10:00:56;5.82;;;2.85;;
54125;SDS011;40360;52.992;6.796;2022-12-08T10:03:23;5.65;;;2.53;;
54125;SDS011;40360;52.992;6.796;2022-12-08T10:06:04;5.25;;;2.25;;
54125;SDS011;40360;52.992;6.796;2022-12-08T10:11:25;7.68;;;2.25;;
54125;SDS011;40360;52.992;6.796;2022-12-08T10:14:37;5.72;;;2.30;;
54125;SDS011;40360;52.992;6.796;2022-12-08T10:17:33;5.10;;;1.70;;
54125;SDS011;40360;52.992;6.796;2022-12-08T10:20:21;2.90;;;1.65;;
54125;SDS011;40360;52.992;6.796;2022-12-08T10:23:06;7.32;;;1.77;;
54125;SDS011;40360;52.992;6.796;2022-12-08T10:26:12;4.50;;;1.23;;
54125;SDS011;40360;52.992;6.796;2022-12-08T10:28:36;3.90;;;1.67;;
54125;SDS011;40360;52.992;6.796;2022-12-08T10:31:13;4.05;;;1.42;;
54125;SDS011;40360;52.992;6.796;2022-12-08T10:33:47;9.13;;;1.65;;
54125;SDS011;40360;52.992;6.796;2022-12-08T10:36:48;3.55;;;1.55;;
54125;SDS011;40360;52.992;6.796;2022-12-08T10:39:37;2.45;;;1.42;;
54125;SDS011;40360;52.992;6.796;2022-12-08T10:47:18;3.97;;;1.50;;
54125;SDS011;40360;52.992;6.796;2022-12-08T10:49:46;7.75;;;1.65;;
54125;SDS011;40360;52.992;6.796;2022-12-08T10:52:30;4.95;;;1.90;;
54125;SDS011;40360;52.992;6.796;2022-12-08T10:55:01;2.25;;;1.80;;
54125;SDS011;40360;52.992;6.796;2022-12-08T10:57:27;4.28;;;1.48;;
54125;SDS011;40360;52.992;6.796;2022-12-08T10:59:54;5.18;;;2.22;;
54125;SDS011;40360;52.992;6.796;2022-12-08T11:02:24;4.00;;;1.58;;
54125;SDS011;40360;52.992;6.796;2022-12-08T11:04:56;2.90;;;1.80;;
54125;SDS011;40360;52.992;6.796;2022-12-08T11:07:26;3.92;;;2.15;;
54125;SDS011;40360;52.992;6.796;2022-12-08T11:09:57;5.55;;;1.77;;
54125;SDS011;40360;52.992;6.796;2022-12-08T11:12:25;5.55;;;2.17;;
54125;SDS011;40360;52.992;6.796;2022-12-08T11:14:59;3.85;;;1.95;;
54125;SDS011;40360;52.992;6.796;2022-12-08T11:17:36;4.65;;;1.63;;
54125;SDS011;40360;52.992;6.796;2022-12-08T11:20:21;3.92;;;1.42;;
54125;SDS011;40360;52.992;6.796;2022-12-08T11:22:54;6.57;;;2.15;;
54125;SDS011;40360;52.992;6.796;2022-12-08T11:25:23;5.10;;;1.70;;
54125;SDS011;40360;52.992;6.796;2022-12-08T11:27:56;5.22;;;1.48;;
54125;SDS011;40360;52.992;6.796;2022-12-08T11:35:44;5.40;;;1.58;;
54125;SDS011;40360;52.992;6.796;2022-12-08T11:38:55;4.22;;;1.42;;
54125;SDS011;40360;52.992;6.796;2022-12-08T11:41:49;4.78;;;1.83;;
54125;SDS011;40360;52.992;6.796;2022-12-08T11:44:32;3.85;;;1.65;;
54125;SDS011;40360;52.992;6.796;2022-12-08T11:47:16;3.42;;;1.50;;
54125;SDS011;40360;52.992;6.796;2022-12-08T11:49:47;2.67;;;1.38;;
54125;SDS011;40360;52.992;6.796;2022-12-08T11:58:31;3.63;;;1.52;;
54125;SDS011;40360;52.992;6.796;2022-12-08T12:01:19;7.68;;;1.92;;
54125;SDS011;40360;52.992;6.796;2022-12-08T12:09:15;3.25;;;1.30;;
54125;SDS011;40360;52.992;6.796;2022-12-08T12:11:49;7.85;;;2.58;;
54125;SDS011;40360;52.992;6.796;2022-12-08T12:15:15;4.47;;;1.92;;
54125;SDS011;40360;52.992;6.796;2022-12-08T12:20:27;8.10;;;1.98;;
54125;SDS011;40360;52.992;6.796;2022-12-08T12:23:07;3.35;;;1.95;;
54125;SDS011;40360;52.992;6.796;2022-12-08T12:26:20;7.55;;;1.50;;
54125;SDS011;40360;52.992;6.796;2022-12-08T12:31:25;7.25;;;2.28;;
54125;SDS011;40360;52.992;6.796;2022-12-08T12:34:43;7.30;;;2.30;;
54125;SDS011;40360;52.992;6.796;2022-12-08T12:36:57;8.32;;;2.33;;
54125;SDS011;40360;52.992;6.796;2022-12-08T12:48:27;6.65;;;2.10;;
54125;SDS011;40360;52.992;6.796;2022-12-08T12:50:59;5.88;;;2.28;;
54125;SDS011;40360;52.992;6.796;2022-12-08T13:00:04;3.85;;;2.00;;
54125;SDS011;40360;52.992;6.796;2022-12-08T13:03:11;5.63;;;2.70;;
54125;SDS011;40360;52.992;6.796;2022-12-08T13:06:13;4.13;;;1.80;;
54125;SDS011;40360;52.992;6.796;2022-12-08T13:08:38;4.97;;;2.42;;
54125;SDS011;40360;52.992;6.796;2022-12-08T13:11:14;5.55;;;2.47;;
54125;SDS011;40360;52.992;6.796;2022-12-08T13:16:36;7.53;;;2.47;;
54125;SDS011;40360;52.992;6.796;2022-12-08T13:19:11;8.38;;;2.80;;
54125;SDS011;40360;52.992;6.796;2022-12-08T13:21:44;5.45;;;2.50;;
54125;SDS011;40360;52.992;6.796;2022-12-08T13:24:12;4.53;;;2.13;;
54125;SDS011;40360;52.992;6.796;2022-12-08T13:29:28;7.13;;;2.30;;
54125;SDS011;40360;52.992;6.796;2022-12-08T13:39:50;3.20;;;1.98;;
54125;SDS011;40360;52.992;6.796;2022-12-08T13:45:43;3.78;;;1.10;;
54125;SDS011;40360;52.992;6.796;2022-12-08T13:48:18;2.88;;;1.10;;
54125;SDS011;40360;52.992;6.796;2022-12-08T13:51:44;3.38;;;1.38;;
54125;SDS011;40360;52.992;6.796;2022-12-08T13:54:03;3.45;;;1.30;;
54125;SDS011;40360;52.992;6.796;2022-12-08T13:56:42;8.32;;;1.45;;
54125;SDS011;40360;52.992;6.796;2022-12-08T13:59:27;2.85;;;0.95;;
54125;SDS011;40360;52.992;6.796;2022-12-08T14:02:00;7.05;;;1.30;;
54125;SDS011;40360;52.992;6.796;2022-12-08T14:04:44;5.90;;;1.77;;
54125;SDS011;40360;52.992;6.796;2022-12-08T14:07:22;5.82;;;1.10;;
54125;SDS011;40360;52.992;6.796;2022-12-08T14:09:50;5.85;;;1.42;;
54125;SDS011;40360;52.992;6.796;2022-12-08T14:12:18;4.07;;;0.77;;
54125;SDS011;40360;52.992;6.796;2022-12-08T14:14:51;4.22;;;1.55;;
54125;SDS011;40360;52.992;6.796;2022-12-08T14:17:22;4.25;;;1.77;;
54125;SDS011;40360;52.992;6.796;2022-12-08T14:20:06;2.22;;;0.70;;
54125;SDS011;40360;52.992;6.796;2022-12-08T14:22:53;2.50;;;0.57;;
54125;SDS011;40360;52.992;6.796;2022-12-08T14:25:32;4.80;;;0.70;;
54125;SDS011;40360;52.992;6.796;2022-12-08T14:28:02;3.13;;;0.65;;
54125;SDS011;40360;52.992;6.796;2022-12-08T14:30:30;2.85;;;1.33;;
54125;SDS011;40360;52.992;6.796;2022-12-08T14:33:01;4.40;;;1.08;;
54125;SDS011;40360;52.992;6.796;2022-12-08T14:35:37;7.18;;;1.25;;
54125;SDS011;40360;52.992;6.796;2022-12-08T14:38:04;4.45;;;1.75;;
54125;SDS011;40360;52.992;6.796;2022-12-08T14:40:45;4.78;;;0.82;;
54125;SDS011;40360;52.992;6.796;2022-12-08T14:43:29;2.80;;;1.02;;
54125;SDS011;40360;52.992;6.796;2022-12-08T14:46:01;2.92;;;1.05;;
54125;SDS011;40360;52.992;6.796;2022-12-08T14:54:03;4.43;;;1.15;;
54125;SDS011;40360;52.992;6.796;2022-12-08T14:56:35;6.20;;;1.23;;
54125;SDS011;40360;52.992;6.796;2022-12-08T15:05:13;4.50;;;1.10;;
54125;SDS011;40360;52.992;6.796;2022-12-08T15:07:50;5.53;;;0.88;;
54125;SDS011;40360;52.992;6.796;2022-12-08T15:10:23;2.67;;;1.20;;
54125;SDS011;40360;52.992;6.796;2022-12-08T15:12:56;4.18;;;0.82;;
54125;SDS011;40360;52.992;6.796;2022-12-08T15:15:27;8.55;;;1.45;;
54125;SDS011;40360;52.992;6.796;2022-12-08T15:23:22;4.80;;;1.10;;
54125;SDS011;40360;52.992;6.796;2022-12-08T15:25:55;3.80;;;0.82;;
54125;SDS011;40360;52.992;6.796;2022-12-08T15:28:25;2.67;;;0.90;;
54125;SDS011;40360;52.992;6.796;2022-12-08T15:30:55;3.30;;;0.80;;
54125;SDS011;40360;52.992;6.796;2022-12-08T15:33:22;4.97;;;1.13;;
54125;SDS011;40360;52.992;6.796;2022-12-08T15:35:54;2.30;;;1.08;;
54125;SDS011;40360;52.992;6.796;2022-12-08T15:38:22;3.95;;;1.23;;
54125;SDS011;40360;52.992;6.796;2022-12-08T15:40:50;6.32;;;1.63;;
54125;SDS011;40360;52.992;6.796;2022-12-08T15:43:22;3.10;;;0.95;;
54125;SDS011;40360;52.992;6.796;2022-12-08T15:45:49;5.90;;;2.10;;
54125;SDS011;40360;52.992;6.796;2022-12-08T15:48:37;7.15;;;2.20;;
54125;SDS011;40360;52.992;6.796;2022-12-08T15:51:02;4.97;;;2.60;;
54125;SDS011;40360;52.992;6.796;2022-12-08T15:54:11;6.43;;;3.60;;
54125;SDS011;40360;52.992;6.796;2022-12-08T15:56:23;7.90;;;2.63;;
54125;SDS011;40360;52.992;6.796;2022-12-08T15:58:51;6.85;;;2.20;;
54125;SDS011;40360;52.992;6.796;2022-12-08T16:01:22;7.68;;;2.10;;
54125;SDS011;40360;52.992;6.796;2022-12-08T16:03:49;9.38;;;2.20;;
54125;SDS011;40360;52.992;6.796;2022-12-08T16:06:19;7.68;;;1.75;;
54125;SDS011;40360;52.992;6.796;2022-12-08T16:08:48;2.88;;;1.20;;
54125;SDS011;40360;52.992;6.796;2022-12-08T16:11:14;4.07;;;1.98;;
54125;SDS011;40360;52.992;6.796;2022-12-08T16:14:01;4.38;;;1.45;;
54125;SDS011;40360;52.992;6.796;2022-12-08T16:16:28;3.40;;;1.58;;
54125;SDS011;40360;52.992;6.796;2022-12-08T16:18:54;6.13;;;1.45;;
54125;SDS011;40360;52.992;6.796;2022-12-08T16:21:20;3.47;;;1.30;;
54125;SDS011;40360;52.992;6.796;2022-12-08T16:23:55;4.35;;;1.40;;
54125;SDS011;40360;52.992;6.796;2022-12-08T16:26:22;5.05;;;1.75;;
54125;SDS011;40360;52.992;6.796;2022-12-08T16:28:48;3.45;;;1.77;;
54125;SDS011;40360;52.992;6.796;2022-12-08T16:31:24;5.88;;;2.00;;
54125;SDS011;40360;52.992;6.796;2022-12-08T16:33:50;4.20;;;1.80;;
54125;SDS011;40360;52.992;6.796;2022-12-08T16:36:18;10.18;;;2.25;;
54125;SDS011;40360;52.992;6.796;2022-12-08T16:38:44;9.82;;;2.30;;
54125;SDS011;40360;52.992;6.796;2022-12-08T16:41:13;4.22;;;1.73;;
54125;SDS011;40360;52.992;6.796;2022-12-08T16:44:00;6.18;;;1.92;;
54125;SDS011;40360;52.992;6.796;2022-12-08T16:46:27;6.80;;;2.00;;
54125;SDS011;40360;52.992;6.796;2022-12-08T16:48:54;5.32;;;2.47;;
54125;SDS011;40360;52.992;6.796;2022-12-08T16:51:23;9.30;;;3.33;;
54125;SDS011;40360;52.992;6.796;2022-12-08T16:53:49;4.18;;;1.77;;
54125;SDS011;40360;52.992;6.796;2022-12-08T16:56:15;7.38;;;2.78;;
54125;SDS011;40360;52.992;6.796;2022-12-08T16:58:43;4.55;;;2.50;;
54125;SDS011;40360;52.992;6.796;2022-12-08T17:01:10;3.70;;;2.28;;
54125;SDS011;40360;52.992;6.796;2022-12-08T17:03:37;5.82;;;2.50;;
54125;SDS011;40360;52.992;6.796;2022-12-08T17:06:08;6.38;;;2.47;;
54125;SDS011;40360;52.992;6.796;2022-12-08T17:08:43;8.90;;;3.38;;
54125;SDS011;40360;52.992;6.796;2022-12-08T17:11:18;9.60;;;3.50;;
54125;SDS011;40360;52.992;6.796;2022-12-08T17:13:48;8.02;;;3.88;;
54125;SDS011;40360;52.992;6.796;2022-12-08T17:16:14;7.20;;;4.07;;
54125;SDS011;40360;52.992;6.796;2022-12-08T17:18:41;6.72;;;3.97;;
54125;SDS011;40360;52.992;6.796;2022-12-08T17:21:11;10.43;;;5.03;;
54125;SDS011;40360;52.992;6.796;2022-12-08T17:23:39;8.30;;;4.75;;
54125;SDS011;40360;52.992;6.796;2022-12-08T17:26:06;8.07;;;4.88;;
54125;SDS011;40360;52.992;6.796;2022-12-08T17:28:32;9.68;;;6.30;;
54125;SDS011;40360;52.992;6.796;2022-12-08T17:30:58;7.13;;;5.00;;
54125;SDS011;40360;52.992;6.796;2022-12-08T17:33:25;9.25;;;5.07;;
54125;SDS011;40360;52.992;6.796;2022-12-08T17:35:54;6.45;;;3.88;;